createdAt,value
2022-09-15T03:54:21.615Z,3.67
2022-09-15T03:56:48.998Z,2.22
2022-09-15T03:59:16.346Z,5.80
2022-09-15T04:01:43.882Z,6.13
2022-09-15T04:04:10.558Z,2.78
2022-09-15T04:06:37.638Z,3.07
2022-09-15T04:09:04.339Z,5.50
2022-09-15T04:11:31.265Z,3.40
2022-09-15T04:13:57.843Z,3.30
2022-09-15T04:16:25.354Z,3.55
2022-09-15T04:18:52.900Z,3.20
2022-09-15T04:21:22.801Z,4.72
2022-09-15T04:23:49.877Z,4.50
2022-09-15T04:26:20.825Z,4.18
2022-09-15T04:28:47.414Z,4.85
2022-09-15T04:31:15.599Z,3.43
2022-09-15T04:33:42.909Z,3.75
2022-09-15T04:36:12.278Z,5.35
2022-09-15T04:38:38.775Z,7.07
2022-09-15T04:41:05.445Z,5.82
2022-09-15T04:43:32.455Z,7.10
2022-09-15T04:45:59.175Z,6.75
2022-09-15T04:48:25.748Z,6.47
2022-09-15T04:50:52.718Z,7.25
2022-09-15T04:53:19.177Z,16.25
2022-09-15T04:55:45.788Z,8.27
2022-09-15T04:58:12.505Z,7.30
2022-09-15T05:00:42.878Z,8.00
2022-09-15T05:03:13.695Z,8.10
2022-09-15T05:05:40.964Z,8.20
2022-09-15T05:08:08.214Z,6.93
2022-09-15T05:10:35.056Z,7.22
2022-09-15T05:13:01.551Z,6.45
2022-09-15T05:15:28.013Z,6.68
2022-09-15T05:17:54.484Z,6.10
2022-09-15T05:20:20.970Z,6.57
2022-09-15T05:22:47.374Z,5.88
2022-09-15T05:25:13.898Z,26.73
2022-09-15T05:27:40.421Z,6.65
2022-09-15T05:30:34.801Z,6.85
2022-09-15T05:32:54.233Z,6.93
2022-09-15T05:35:20.716Z,7.57
2022-09-15T05:37:47.210Z,6.55
2022-09-15T05:40:13.764Z,7.75
2022-09-15T05:42:40.394Z,9.20
2022-09-15T05:45:07.583Z,5.80
2022-09-15T05:47:34.091Z,6.75
2022-09-15T05:50:05.077Z,7.78
2022-09-15T05:52:31.584Z,5.85
2022-09-15T05:54:59.292Z,6.40
2022-09-15T05:57:28.150Z,7.77
2022-09-15T05:59:54.977Z,6.72
2022-09-15T06:02:21.471Z,5.63
2022-09-15T06:04:47.917Z,7.55
2022-09-15T06:07:14.346Z,7.00
2022-09-15T06:09:41.785Z,5.90
2022-09-15T06:12:10.634Z,7.30
2022-09-15T06:14:37.107Z,7.50
2022-09-15T06:17:03.622Z,6.40
2022-09-15T06:19:30.077Z,7.07
2022-09-15T06:21:56.624Z,5.87
2022-09-15T06:24:23.150Z,8.88
2022-09-15T06:26:49.644Z,6.80
2022-09-15T06:29:16.098Z,7.18
2022-09-15T06:31:42.628Z,5.13
2022-09-15T06:34:12.036Z,8.80
2022-09-15T06:36:39.090Z,8.90
2022-09-15T06:39:05.695Z,6.80
2022-09-15T06:41:52.454Z,5.72
2022-09-15T06:44:21.798Z,6.97
2022-09-15T06:46:48.778Z,6.83
2022-09-15T06:49:15.671Z,6.10
2022-09-15T06:51:44.288Z,5.80
2022-09-15T06:54:10.873Z,8.30
2022-09-15T06:56:38.395Z,7.35
2022-09-15T06:59:05.043Z,6.63
2022-09-15T07:01:32.381Z,5.95
2022-09-15T07:04:00.888Z,6.07
2022-09-15T07:06:28.875Z,8.45
2022-09-15T07:08:55.934Z,7.75
2022-09-15T07:11:22.479Z,5.73
2022-09-15T07:13:51.586Z,5.88
2022-09-15T07:16:19.207Z,6.85
2022-09-15T07:18:46.503Z,5.18
2022-09-15T07:21:16.076Z,5.53
2022-09-15T07:23:43.391Z,6.10
2022-09-15T07:26:14.383Z,8.10
2022-09-15T07:28:42.320Z,5.68
2022-09-15T07:31:10.899Z,7.35
2022-09-15T07:33:37.388Z,5.43
2022-09-15T07:36:06.779Z,5.20
2022-09-15T07:38:33.994Z,5.93
2022-09-15T07:41:09.802Z,7.15
2022-09-15T07:43:36.225Z,6.85
2022-09-15T07:46:03.401Z,6.85
2022-09-15T07:48:30.014Z,4.63
2022-09-15T07:50:56.675Z,6.07
2022-09-15T07:53:23.133Z,5.18
2022-09-15T07:55:56.202Z,6.18
2022-09-15T07:58:23.265Z,5.53
2022-09-15T08:00:49.731Z,5.53
2022-09-15T08:03:16.406Z,4.63
2022-09-15T08:05:45.621Z,4.82
2022-09-15T08:08:12.362Z,5.63
2022-09-15T08:10:40.175Z,3.85
2022-09-15T08:13:06.763Z,4.23
2022-09-15T08:15:35.863Z,5.38
2022-09-15T08:18:02.527Z,5.05
2022-09-15T08:20:29.044Z,5.28
2022-09-15T08:22:55.458Z,4.30
2022-09-15T08:25:21.890Z,4.83
2022-09-15T08:27:48.297Z,4.97
2022-09-15T08:30:15.124Z,5.97
2022-09-15T08:32:41.573Z,4.68
2022-09-15T08:35:08.691Z,5.63
2022-09-15T08:37:40.827Z,5.47
2022-09-15T08:40:09.813Z,3.88
2022-09-15T08:42:36.250Z,3.90
2022-09-15T08:45:09.163Z,4.43
2022-09-15T08:47:37.697Z,4.22
2022-09-15T08:50:28.444Z,3.43
2022-09-15T08:52:59.383Z,3.95
2022-09-15T08:55:44.677Z,3.17
2022-09-15T08:58:17.606Z,4.43
2022-09-15T09:00:45.700Z,3.92
2022-09-15T09:03:36.705Z,4.70
2022-09-15T09:06:24.138Z,3.63
2022-09-15T09:09:15.477Z,3.63
2022-09-15T09:11:59.205Z,3.53
2022-09-15T09:14:50.742Z,4.47
2022-09-15T09:18:07.554Z,6.27
2022-09-15T09:20:46.284Z,3.75
2022-09-15T09:23:15.700Z,4.18
2022-09-15T09:25:43.022Z,3.22
2022-09-15T09:28:23.499Z,4.28
2022-09-15T09:30:49.959Z,4.63
2022-09-15T09:33:29.335Z,2.80
2022-09-15T09:35:58.788Z,3.10
2022-09-15T09:38:54.594Z,4.03
2022-09-15T09:41:25.898Z,5.10
2022-09-15T09:43:54.004Z,5.47
2022-09-15T09:46:21.223Z,4.97
2022-09-15T09:48:52.638Z,3.42
2022-09-15T09:51:40.245Z,5.72
2022-09-15T09:54:16.300Z,2.72
2022-09-15T09:56:45.602Z,4.03
2022-09-15T09:59:35.486Z,2.63
2022-09-15T10:02:27.077Z,4.13
2022-09-15T10:04:54.518Z,3.83
2022-09-15T10:07:27.257Z,4.60
2022-09-15T10:09:56.144Z,5.07
2022-09-15T10:12:29.311Z,4.63
2022-09-15T10:14:58.375Z,5.28
2022-09-15T10:17:27.985Z,5.93
2022-09-15T10:19:58.962Z,5.93
2022-09-15T10:22:33.937Z,5.50
2022-09-15T10:25:19.750Z,4.47
2022-09-15T10:28:02.237Z,3.75
2022-09-15T10:30:28.742Z,3.35
2022-09-15T10:32:55.228Z,2.72
2022-09-15T10:35:21.633Z,5.93
2022-09-15T10:38:04.592Z,4.93
2022-09-15T10:40:50.426Z,4.55
2022-09-15T10:43:32.122Z,6.97
2022-09-15T10:46:02.472Z,3.75
2022-09-15T10:48:47.069Z,5.70
2022-09-15T10:51:40.058Z,5.60
2022-09-15T10:54:25.591Z,3.58
2022-09-15T10:57:04.370Z,4.07
2022-09-15T10:59:49.169Z,7.53
2022-09-15T11:02:26.248Z,3.60
2022-09-15T11:05:01.454Z,4.97
2022-09-15T11:07:48.433Z,6.25
2022-09-15T11:10:36.293Z,4.07
2022-09-15T11:13:32.130Z,3.90
2022-09-15T11:16:17.222Z,5.93
2022-09-15T11:18:58.827Z,4.55
2022-09-15T11:21:53.068Z,6.10
2022-09-15T11:24:33.426Z,6.25
2022-09-15T11:27:28.651Z,5.60
2022-09-15T11:30:06.726Z,6.07
2022-09-15T11:32:46.781Z,6.95
2022-09-15T11:35:29.734Z,7.40
2022-09-15T11:38:01.281Z,8.80
2022-09-15T11:40:29.579Z,9.70
2022-09-15T11:43:29.926Z,9.43
2022-09-15T11:45:56.938Z,10.65
2022-09-15T11:48:37.238Z,10.80
2022-09-15T11:51:06.739Z,8.90
2022-09-15T11:53:39.218Z,8.00
2022-09-15T11:56:13.366Z,5.33
2022-09-15T11:58:55.156Z,8.77
2022-09-15T12:01:25.770Z,7.65
2022-09-15T12:04:02.727Z,8.07
2022-09-15T12:06:55.547Z,7.22
2022-09-15T12:09:22.637Z,7.17
2022-09-15T12:11:56.349Z,11.38
2022-09-15T12:14:34.583Z,6.72
2022-09-15T12:17:01.614Z,7.57
2022-09-15T12:19:33.825Z,8.45
2022-09-15T12:22:12.090Z,12.30
2022-09-15T12:24:45.944Z,10.68
2022-09-15T12:27:17.688Z,13.30
2022-09-15T12:29:55.373Z,8.55
2022-09-15T12:32:23.264Z,7.82
2022-09-15T12:35:05.062Z,8.57
2022-09-15T12:37:39.682Z,8.82
2022-09-15T12:40:11.924Z,9.63
2022-09-15T12:42:45.094Z,8.27
2022-09-15T12:45:24.635Z,14.57
2022-09-15T12:51:37.578Z,9.00
2022-09-15T12:54:07.314Z,9.35
2022-09-15T12:56:34.253Z,8.65
2022-09-15T12:59:08.121Z,9.70
2022-09-15T13:13:11.958Z,11.32
2022-09-15T13:15:44.345Z,12.38
2022-09-15T13:18:12.585Z,6.33
2022-09-15T13:20:43.302Z,5.18
2022-09-15T13:23:14.140Z,4.43
2022-09-15T13:25:42.731Z,3.45
2022-09-15T13:28:10.871Z,3.95
2022-09-15T13:31:08.704Z,5.90
2022-09-15T14:40:43.350Z,8.77
2022-09-15T15:25:00.835Z,8.47
2022-09-15T15:43:28.886Z,7.03
2022-09-15T15:46:00.732Z,7.88
2022-09-15T15:48:32.839Z,9.02
2022-09-15T15:51:04.520Z,7.55
2022-09-15T15:53:31.362Z,7.53
2022-09-15T15:55:59.637Z,8.77
2022-09-15T15:58:26.412Z,9.85
2022-09-15T16:00:54.583Z,8.48
2022-09-15T16:03:21.880Z,9.50
2022-09-15T16:05:51.549Z,10.68
2022-09-15T16:08:24.856Z,10.03
2022-09-15T16:10:51.602Z,7.70
2022-09-15T16:13:19.975Z,8.40
2022-09-15T16:15:46.565Z,10.98
2022-09-15T16:18:13.366Z,7.75
2022-09-15T16:20:40.591Z,9.03
2022-09-15T16:23:07.180Z,11.43
2022-09-15T16:25:55.000Z,10.05
2022-09-15T16:28:21.596Z,9.80
2022-09-15T16:30:48.146Z,11.80
2022-09-15T16:33:16.204Z,10.70
2022-09-15T16:35:49.359Z,9.15
2022-09-15T16:38:15.885Z,10.50
2022-09-15T16:40:42.322Z,13.45
2022-09-15T16:43:19.073Z,9.93
2022-09-15T16:45:45.655Z,11.90
2022-09-15T16:48:12.312Z,11.00
2022-09-15T16:50:40.143Z,12.07
2022-09-15T16:53:20.524Z,10.00
2022-09-15T16:55:55.692Z,10.77
2022-09-15T16:58:22.558Z,9.27
2022-09-15T17:00:52.387Z,11.00
2022-09-15T17:03:21.290Z,11.32
2022-09-15T17:05:50.056Z,11.55
2022-09-15T17:08:18.209Z,11.52
2022-09-15T17:10:44.705Z,10.03
2022-09-15T17:13:17.467Z,11.07
2022-09-15T17:15:45.890Z,9.18
2022-09-15T17:18:15.272Z,11.40
2022-09-15T17:20:45.617Z,8.07
2022-09-15T17:23:24.370Z,12.67
2022-09-15T17:25:58.262Z,11.52
2022-09-15T17:28:26.997Z,12.32
2022-09-15T17:31:00.271Z,11.73
2022-09-15T17:33:27.831Z,11.50
2022-09-15T17:35:54.599Z,10.73
2022-09-15T17:38:22.423Z,13.10
2022-09-15T17:40:49.913Z,13.65
2022-09-15T17:43:18.362Z,11.70
2022-09-15T17:45:45.433Z,14.40
2022-09-15T17:48:12.383Z,13.93
2022-09-15T17:50:40.057Z,11.32
2022-09-15T17:53:13.108Z,13.60
2022-09-15T17:55:39.811Z,13.75
2022-09-15T17:58:06.871Z,12.13
2022-09-15T18:00:35.798Z,13.33
2022-09-15T18:03:05.252Z,11.35
2022-09-15T18:05:36.261Z,15.20
2022-09-15T18:08:04.921Z,15.00
2022-09-15T18:10:33.165Z,14.73
2022-09-15T18:12:59.662Z,16.13
2022-09-15T18:15:29.189Z,15.07
2022-09-15T18:17:58.538Z,17.13
2022-09-15T18:20:27.390Z,18.08
2022-09-15T18:22:54.663Z,16.77
2022-09-15T18:25:32.570Z,14.00
2022-09-15T18:27:59.929Z,15.48
2022-09-15T18:30:28.736Z,16.52
2022-09-15T18:32:56.713Z,18.70
2022-09-15T18:35:23.511Z,17.15
2022-09-15T18:37:55.114Z,15.83
2022-09-15T18:40:21.830Z,17.83
2022-09-15T18:42:48.782Z,17.67
2022-09-15T18:45:16.586Z,16.25
2022-09-15T18:47:43.294Z,16.13
2022-09-15T18:50:11.514Z,14.17
2022-09-15T18:52:39.665Z,19.30
2022-09-15T18:55:07.536Z,15.82
2022-09-15T18:57:35.373Z,18.73
2022-09-15T19:00:05.072Z,15.38
2022-09-15T19:02:31.607Z,15.87
2022-09-15T19:04:58.250Z,15.27
2022-09-15T19:07:28.311Z,13.88
2022-09-15T19:09:56.727Z,16.92
2022-09-15T19:12:23.450Z,13.10
2022-09-15T19:14:49.872Z,15.07
2022-09-15T19:17:16.596Z,15.02
2022-09-15T19:19:43.444Z,14.35
2022-09-15T19:22:10.349Z,13.90
2022-09-15T19:24:36.965Z,11.75
2022-09-15T19:27:05.453Z,14.53
2022-09-15T19:29:35.359Z,11.48
2022-09-15T19:32:07.907Z,10.13
2022-09-15T19:34:35.763Z,13.82
2022-09-15T19:37:04.075Z,9.55
2022-09-15T19:39:33.343Z,9.27
2022-09-15T19:41:59.905Z,8.90
2022-09-15T19:44:26.393Z,11.43
2022-09-15T19:46:53.131Z,10.88
2022-09-15T19:49:20.096Z,9.10
2022-09-15T19:51:46.530Z,11.07
2022-09-15T19:54:12.962Z,10.95
2022-09-15T19:56:39.549Z,9.07
